sensor_id;sensor_type;location;lat;lon;timestamp;P1;durP1;ratioP1;P2;durP2;ratioP2
77948;SDS011;67146;51.236;-0.336;2023-09-19T00:00:57;6.95;;;0.70;;
77948;SDS011;67146;51.236;-0.336;2023-09-19T00:03:23;7.50;;;0.73;;
77948;SDS011;67146;51.236;-0.336;2023-09-19T00:05:49;6.13;;;1.05;;
77948;SDS011;67146;51.236;-0.336;2023-09-19T00:08:15;6.70;;;0.82;;
77948;SDS011;67146;51.236;-0.336;2023-09-19T00:10:41;5.90;;;0.93;;
77948;SDS011;67146;51.236;-0.336;2023-09-19T00:13:07;8.10;;;0.68;;
77948;SDS011;67146;51.236;-0.336;2023-09-19T00:15:39;5.63;;;0.45;;
77948;SDS011;67146;51.236;-0.336;2023-09-19T00:18:06;8.90;;;1.67;;
77948;SDS011;67146;51.236;-0.336;2023-09-19T00:20:32;7.10;;;0.50;;
77948;SDS011;67146;51.236;-0.336;2023-09-19T00:23:00;6.30;;;0.40;;
77948;SDS011;67146;51.236;-0.336;2023-09-19T00:25:33;9.30;;;0.95;;
77948;SDS011;67146;51.236;-0.336;2023-09-19T00:28:00;12.10;;;1.15;;
77948;SDS011;67146;51.236;-0.336;2023-09-19T00:30:26;8.05;;;1.52;;
77948;SDS011;67146;51.236;-0.336;2023-09-19T00:32:52;5.30;;;0.40;;
77948;SDS011;67146;51.236;-0.336;2023-09-19T00:35:17;6.05;;;0.47;;
77948;SDS011;67146;51.236;-0.336;2023-09-19T00:37:48;5.50;;;0.55;;
77948;SDS011;67146;51.236;-0.336;2023-09-19T00:40:14;8.05;;;1.33;;
77948;SDS011;67146;51.236;-0.336;2023-09-19T00:42:42;7.88;;;0.90;;
77948;SDS011;67146;51.236;-0.336;2023-09-19T00:45:09;8.80;;;0.93;;
77948;SDS011;67146;51.236;-0.336;2023-09-19T00:47:41;7.28;;;0.85;;
77948;SDS011;67146;51.236;-0.336;2023-09-19T00:50:08;7.40;;;1.10;;
77948;SDS011;67146;51.236;-0.336;2023-09-19T00:52:35;11.38;;;1.25;;
77948;SDS011;67146;51.236;-0.336;2023-09-19T00:55:07;8.55;;;0.95;;
77948;SDS011;67146;51.236;-0.336;2023-09-19T00:57:36;8.13;;;1.08;;
77948;SDS011;67146;51.236;-0.336;2023-09-19T01:00:03;7.78;;;0.77;;
77948;SDS011;67146;51.236;-0.336;2023-09-19T01:02:33;8.55;;;0.60;;
77948;SDS011;67146;51.236;-0.336;2023-09-19T01:04:59;16.75;;;1.77;;
77948;SDS011;67146;51.236;-0.336;2023-09-19T01:07:26;7.70;;;0.60;;
77948;SDS011;67146;51.236;-0.336;2023-09-19T01:09:54;6.18;;;1.17;;
77948;SDS011;67146;51.236;-0.336;2023-09-19T01:12:25;15.57;;;1.23;;
77948;SDS011;67146;51.236;-0.336;2023-09-19T01:14:59;6.63;;;1.23;;
77948;SDS011;67146;51.236;-0.336;2023-09-19T01:17:31;7.50;;;0.88;;
77948;SDS011;67146;51.236;-0.336;2023-09-19T01:25:44;10.30;;;0.60;;
77948;SDS011;67146;51.236;-0.336;2023-09-19T01:31:28;8.40;;;0.60;;
77948;SDS011;67146;51.236;-0.336;2023-09-19T01:36:28;13.77;;;1.92;;
77948;SDS011;67146;51.236;-0.336;2023-09-19T01:39:00;8.35;;;0.80;;
77948;SDS011;67146;51.236;-0.336;2023-09-19T01:41:51;8.20;;;0.65;;
77948;SDS011;67146;51.236;-0.336;2023-09-19T01:44:36;10.52;;;1.38;;
77948;SDS011;67146;51.236;-0.336;2023-09-19T01:47:09;8.68;;;0.63;;
77948;SDS011;67146;51.236;-0.336;2023-09-19T01:49:42;9.75;;;1.00;;
77948;SDS011;67146;51.236;-0.336;2023-09-19T01:52:28;11.70;;;0.90;;
77948;SDS011;67146;51.236;-0.336;2023-09-19T01:55:00;13.40;;;1.30;;
77948;SDS011;67146;51.236;-0.336;2023-09-19T01:57:42;9.27;;;0.80;;
77948;SDS011;67146;51.236;-0.336;2023-09-19T02:00:36;12.40;;;1.13;;
77948;SDS011;67146;51.236;-0.336;2023-09-19T02:03:02;6.47;;;0.88;;
77948;SDS011;67146;51.236;-0.336;2023-09-19T02:05:28;10.07;;;0.75;;
77948;SDS011;67146;51.236;-0.336;2023-09-19T02:07:54;7.45;;;0.88;;
77948;SDS011;67146;51.236;-0.336;2023-09-19T02:10:20;5.68;;;0.80;;
77948;SDS011;67146;51.236;-0.336;2023-09-19T02:12:46;9.90;;;0.68;;
77948;SDS011;67146;51.236;-0.336;2023-09-19T02:15:12;8.63;;;0.47;;
77948;SDS011;67146;51.236;-0.336;2023-09-19T02:17:37;13.65;;;0.90;;
77948;SDS011;67146;51.236;-0.336;2023-09-19T02:20:03;8.88;;;0.77;;
77948;SDS011;67146;51.236;-0.336;2023-09-19T02:22:36;5.28;;;0.55;;
77948;SDS011;67146;51.236;-0.336;2023-09-19T02:25:02;13.10;;;0.73;;
77948;SDS011;67146;51.236;-0.336;2023-09-19T02:27:30;8.90;;;0.90;;
77948;SDS011;67146;51.236;-0.336;2023-09-19T02:29:56;11.20;;;0.77;;
77948;SDS011;67146;51.236;-0.336;2023-09-19T02:32:21;9.13;;;0.80;;
77948;SDS011;67146;51.236;-0.336;2023-09-19T02:34:48;11.15;;;1.13;;
77948;SDS011;67146;51.236;-0.336;2023-09-19T02:37:13;8.35;;;0.70;;
77948;SDS011;67146;51.236;-0.336;2023-09-19T02:39:41;10.48;;;0.75;;
77948;SDS011;67146;51.236;-0.336;2023-09-19T02:42:07;12.23;;;2.08;;
77948;SDS011;67146;51.236;-0.336;2023-09-19T02:44:32;9.68;;;0.75;;
77948;SDS011;67146;51.236;-0.336;2023-09-19T02:46:58;13.57;;;1.95;;
77948;SDS011;67146;51.236;-0.336;2023-09-19T02:49:24;6.80;;;0.77;;
77948;SDS011;67146;51.236;-0.336;2023-09-19T02:51:52;10.73;;;0.80;;
77948;SDS011;67146;51.236;-0.336;2023-09-19T02:54:17;10.18;;;1.27;;
77948;SDS011;67146;51.236;-0.336;2023-09-19T02:56:43;10.52;;;0.63;;
77948;SDS011;67146;51.236;-0.336;2023-09-19T02:59:09;11.27;;;1.02;;
77948;SDS011;67146;51.236;-0.336;2023-09-19T03:01:38;7.82;;;0.90;;
77948;SDS011;67146;51.236;-0.336;2023-09-19T03:04:04;7.38;;;0.90;;
77948;SDS011;67146;51.236;-0.336;2023-09-19T03:06:36;7.82;;;0.85;;
77948;SDS011;67146;51.236;-0.336;2023-09-19T03:09:01;10.18;;;1.23;;
77948;SDS011;67146;51.236;-0.336;2023-09-19T03:11:31;12.02;;;0.93;;
77948;SDS011;67146;51.236;-0.336;2023-09-19T03:13:56;6.25;;;1.30;;
77948;SDS011;67146;51.236;-0.336;2023-09-19T03:16:22;8.85;;;1.13;;
77948;SDS011;67146;51.236;-0.336;2023-09-19T03:18:47;6.78;;;0.65;;
77948;SDS011;67146;51.236;-0.336;2023-09-19T03:23:42;10.52;;;1.30;;
77948;SDS011;67146;51.236;-0.336;2023-09-19T03:26:09;9.88;;;0.52;;
77948;SDS011;67146;51.236;-0.336;2023-09-19T03:28:35;8.15;;;1.00;;
77948;SDS011;67146;51.236;-0.336;2023-09-19T03:31:01;11.35;;;1.23;;
77948;SDS011;67146;51.236;-0.336;2023-09-19T03:33:28;11.90;;;0.70;;
77948;SDS011;67146;51.236;-0.336;2023-09-19T03:35:53;6.75;;;0.45;;
77948;SDS011;67146;51.236;-0.336;2023-09-19T03:38:19;14.57;;;1.63;;
77948;SDS011;67146;51.236;-0.336;2023-09-19T03:40:46;11.50;;;0.50;;
77948;SDS011;67146;51.236;-0.336;2023-09-19T03:43:12;8.48;;;0.95;;
77948;SDS011;67146;51.236;-0.336;2023-09-19T03:45:38;8.48;;;0.57;;
77948;SDS011;67146;51.236;-0.336;2023-09-19T03:48:12;8.25;;;0.68;;
77948;SDS011;67146;51.236;-0.336;2023-09-19T03:50:38;10.95;;;1.55;;
77948;SDS011;67146;51.236;-0.336;2023-09-19T03:53:04;11.75;;;0.77;;
77948;SDS011;67146;51.236;-0.336;2023-09-19T03:55:30;9.30;;;0.60;;
77948;SDS011;67146;51.236;-0.336;2023-09-19T03:57:55;9.40;;;0.70;;
77948;SDS011;67146;51.236;-0.336;2023-09-19T04:00:21;10.43;;;1.15;;
77948;SDS011;67146;51.236;-0.336;2023-09-19T04:02:49;10.95;;;1.08;;
77948;SDS011;67146;51.236;-0.336;2023-09-19T04:05:16;7.47;;;0.47;;
77948;SDS011;67146;51.236;-0.336;2023-09-19T04:07:42;8.77;;;0.70;;
77948;SDS011;67146;51.236;-0.336;2023-09-19T04:10:07;13.48;;;1.52;;
77948;SDS011;67146;51.236;-0.336;2023-09-19T04:12:40;9.43;;;1.13;;
77948;SDS011;67146;51.236;-0.336;2023-09-19T04:15:05;10.45;;;0.88;;
77948;SDS011;67146;51.236;-0.336;2023-09-19T04:17:31;10.35;;;0.60;;
77948;SDS011;67146;51.236;-0.336;2023-09-19T04:20:00;8.57;;;1.23;;
77948;SDS011;67146;51.236;-0.336;2023-09-19T04:22:25;6.38;;;0.63;;
77948;SDS011;67146;51.236;-0.336;2023-09-19T04:24:51;11.63;;;0.75;;
77948;SDS011;67146;51.236;-0.336;2023-09-19T04:27:16;9.45;;;1.40;;
77948;SDS011;67146;51.236;-0.336;2023-09-19T04:29:43;6.57;;;1.42;;
77948;SDS011;67146;51.236;-0.336;2023-09-19T04:32:09;10.35;;;0.63;;
77948;SDS011;67146;51.236;-0.336;2023-09-19T04:34:35;11.38;;;1.10;;
77948;SDS011;67146;51.236;-0.336;2023-09-19T04:37:00;11.50;;;0.77;;
77948;SDS011;67146;51.236;-0.336;2023-09-19T04:39:27;8.25;;;1.02;;
77948;SDS011;67146;51.236;-0.336;2023-09-19T04:41:53;13.57;;;0.95;;
77948;SDS011;67146;51.236;-0.336;2023-09-19T04:44:19;9.88;;;1.25;;
77948;SDS011;67146;51.236;-0.336;2023-09-19T04:46:45;9.38;;;1.00;;
77948;SDS011;67146;51.236;-0.336;2023-09-19T04:49:11;8.95;;;1.33;;
77948;SDS011;67146;51.236;-0.336;2023-09-19T04:51:37;8.68;;;1.23;;
77948;SDS011;67146;51.236;-0.336;2023-09-19T04:54:03;7.85;;;0.73;;
77948;SDS011;67146;51.236;-0.336;2023-09-19T04:56:29;9.82;;;0.50;;
77948;SDS011;67146;51.236;-0.336;2023-09-19T04:58:54;5.72;;;0.32;;
77948;SDS011;67146;51.236;-0.336;2023-09-19T05:01:20;8.45;;;1.48;;
77948;SDS011;67146;51.236;-0.336;2023-09-19T05:03:47;7.45;;;1.35;;
77948;SDS011;67146;51.236;-0.336;2023-09-19T05:06:17;12.10;;;0.98;;
77948;SDS011;67146;51.236;-0.336;2023-09-19T05:08:43;12.82;;;0.95;;
77948;SDS011;67146;51.236;-0.336;2023-09-19T05:11:08;10.95;;;0.50;;
77948;SDS011;67146;51.236;-0.336;2023-09-19T05:13:34;11.75;;;1.85;;
77948;SDS011;67146;51.236;-0.336;2023-09-19T05:16:00;7.95;;;1.02;;
77948;SDS011;67146;51.236;-0.336;2023-09-19T05:18:27;7.60;;;1.75;;
77948;SDS011;67146;51.236;-0.336;2023-09-19T05:20:53;10.88;;;0.80;;
77948;SDS011;67146;51.236;-0.336;2023-09-19T05:23:19;9.20;;;1.05;;
77948;SDS011;67146;51.236;-0.336;2023-09-19T05:25:46;10.75;;;1.88;;
77948;SDS011;67146;51.236;-0.336;2023-09-19T05:28:11;7.40;;;0.70;;
77948;SDS011;67146;51.236;-0.336;2023-09-19T05:30:40;6.80;;;0.65;;
77948;SDS011;67146;51.236;-0.336;2023-09-19T05:33:06;9.82;;;0.85;;
77948;SDS011;67146;51.236;-0.336;2023-09-19T05:35:32;12.35;;;1.20;;
77948;SDS011;67146;51.236;-0.336;2023-09-19T05:37:58;7.22;;;0.68;;
77948;SDS011;67146;51.236;-0.336;2023-09-19T05:40:24;10.10;;;1.40;;
77948;SDS011;67146;51.236;-0.336;2023-09-19T05:42:50;7.45;;;0.52;;
77948;SDS011;67146;51.236;-0.336;2023-09-19T05:45:18;11.77;;;0.50;;
77948;SDS011;67146;51.236;-0.336;2023-09-19T05:47:50;9.32;;;0.95;;
77948;SDS011;67146;51.236;-0.336;2023-09-19T05:50:20;7.78;;;0.65;;
77948;SDS011;67146;51.236;-0.336;2023-09-19T05:52:53;8.43;;;1.25;;
77948;SDS011;67146;51.236;-0.336;2023-09-19T05:55:20;8.48;;;0.50;;
77948;SDS011;67146;51.236;-0.336;2023-09-19T05:57:50;7.82;;;0.60;;
77948;SDS011;67146;51.236;-0.336;2023-09-19T06:00:19;9.30;;;0.90;;
77948;SDS011;67146;51.236;-0.336;2023-09-19T06:05:19;5.65;;;0.57;;
77948;SDS011;67146;51.236;-0.336;2023-09-19T06:10:16;9.75;;;0.40;;
77948;SDS011;67146;51.236;-0.336;2023-09-19T06:12:45;8.02;;;0.85;;
77948;SDS011;67146;51.236;-0.336;2023-09-19T06:15:11;5.78;;;0.38;;
77948;SDS011;67146;51.236;-0.336;2023-09-19T06:17:50;7.68;;;0.57;;
77948;SDS011;67146;51.236;-0.336;2023-09-19T06:20:16;3.40;;;0.60;;
77948;SDS011;67146;51.236;-0.336;2023-09-19T06:22:43;5.97;;;1.48;;
77948;SDS011;67146;51.236;-0.336;2023-09-19T06:25:13;5.55;;;0.50;;
77948;SDS011;67146;51.236;-0.336;2023-09-19T06:27:44;8.90;;;0.80;;
77948;SDS011;67146;51.236;-0.336;2023-09-19T06:30:10;6.75;;;0.70;;
77948;SDS011;67146;51.236;-0.336;2023-09-19T06:32:39;6.78;;;0.50;;
77948;SDS011;67146;51.236;-0.336;2023-09-19T06:35:09;5.07;;;0.88;;
77948;SDS011;67146;51.236;-0.336;2023-09-19T06:37:36;6.18;;;0.70;;
77948;SDS011;67146;51.236;-0.336;2023-09-19T06:40:04;6.13;;;0.93;;
77948;SDS011;67146;51.236;-0.336;2023-09-19T06:42:31;5.95;;;0.80;;
77948;SDS011;67146;51.236;-0.336;2023-09-19T06:44:57;4.32;;;0.60;;
77948;SDS011;67146;51.236;-0.336;2023-09-19T06:47:23;11.38;;;1.45;;
77948;SDS011;67146;51.236;-0.336;2023-09-19T06:49:50;9.48;;;0.88;;
77948;SDS011;67146;51.236;-0.336;2023-09-19T06:52:17;6.88;;;0.73;;
77948;SDS011;67146;51.236;-0.336;2023-09-19T06:54:46;7.22;;;0.90;;
77948;SDS011;67146;51.236;-0.336;2023-09-19T06:57:15;12.05;;;1.23;;
77948;SDS011;67146;51.236;-0.336;2023-09-19T06:59:46;8.20;;;0.45;;
77948;SDS011;67146;51.236;-0.336;2023-09-19T07:02:14;5.72;;;0.57;;
77948;SDS011;67146;51.236;-0.336;2023-09-19T07:04:39;6.93;;;0.55;;
77948;SDS011;67146;51.236;-0.336;2023-09-19T07:07:07;4.75;;;0.68;;
77948;SDS011;67146;51.236;-0.336;2023-09-19T07:09:35;5.00;;;0.85;;
77948;SDS011;67146;51.236;-0.336;2023-09-19T07:12:02;4.70;;;0.45;;
77948;SDS011;67146;51.236;-0.336;2023-09-19T07:14:27;13.25;;;1.38;;
77948;SDS011;67146;51.236;-0.336;2023-09-19T07:16:55;9.73;;;0.77;;
77948;SDS011;67146;51.236;-0.336;2023-09-19T07:19:23;6.97;;;1.73;;
77948;SDS011;67146;51.236;-0.336;2023-09-19T07:21:57;7.18;;;0.80;;
77948;SDS011;67146;51.236;-0.336;2023-09-19T07:24:32;5.13;;;0.47;;
77948;SDS011;67146;51.236;-0.336;2023-09-19T07:27:01;5.28;;;0.43;;
77948;SDS011;67146;51.236;-0.336;2023-09-19T07:29:27;13.63;;;1.58;;
77948;SDS011;67146;51.236;-0.336;2023-09-19T07:31:53;7.18;;;0.55;;
77948;SDS011;67146;51.236;-0.336;2023-09-19T07:34:19;4.28;;;0.55;;
77948;SDS011;67146;51.236;-0.336;2023-09-19T07:36:46;8.57;;;0.77;;
77948;SDS011;67146;51.236;-0.336;2023-09-19T07:39:15;9.60;;;1.38;;
77948;SDS011;67146;51.236;-0.336;2023-09-19T07:41:43;6.75;;;1.10;;
77948;SDS011;67146;51.236;-0.336;2023-09-19T07:44:08;11.68;;;1.42;;
77948;SDS011;67146;51.236;-0.336;2023-09-19T07:46:37;11.23;;;1.42;;
77948;SDS011;67146;51.236;-0.336;2023-09-19T07:49:03;8.57;;;1.33;;
77948;SDS011;67146;51.236;-0.336;2023-09-19T07:51:31;11.43;;;1.20;;
77948;SDS011;67146;51.236;-0.336;2023-09-19T07:53:58;6.85;;;1.38;;
77948;SDS011;67146;51.236;-0.336;2023-09-19T07:56:23;7.13;;;0.95;;
77948;SDS011;67146;51.236;-0.336;2023-09-19T07:58:50;6.20;;;0.73;;
77948;SDS011;67146;51.236;-0.336;2023-09-19T08:01:17;15.77;;;2.15;;
77948;SDS011;67146;51.236;-0.336;2023-09-19T08:03:42;12.15;;;2.05;;
77948;SDS011;67146;51.236;-0.336;2023-09-19T08:06:09;9.10;;;1.35;;
77948;SDS011;67146;51.236;-0.336;2023-09-19T08:08:35;15.38;;;2.00;;
77948;SDS011;67146;51.236;-0.336;2023-09-19T08:11:04;11.50;;;1.95;;
77948;SDS011;67146;51.236;-0.336;2023-09-19T08:13:40;28.85;;;3.22;;
77948;SDS011;67146;51.236;-0.336;2023-09-19T08:16:09;7.18;;;1.40;;
77948;SDS011;67146;51.236;-0.336;2023-09-19T08:18:35;12.63;;;2.33;;
77948;SDS011;67146;51.236;-0.336;2023-09-19T08:21:02;14.45;;;1.38;;
77948;SDS011;67146;51.236;-0.336;2023-09-19T08:23:28;14.90;;;1.42;;
77948;SDS011;67146;51.236;-0.336;2023-09-19T08:25:57;15.00;;;2.40;;
77948;SDS011;67146;51.236;-0.336;2023-09-19T08:28:23;12.80;;;2.20;;
77948;SDS011;67146;51.236;-0.336;2023-09-19T08:30:49;12.20;;;1.38;;
77948;SDS011;67146;51.236;-0.336;2023-09-19T08:33:15;16.20;;;2.40;;
77948;SDS011;67146;51.236;-0.336;2023-09-19T08:35:41;10.05;;;1.67;;
77948;SDS011;67146;51.236;-0.336;2023-09-19T08:38:11;12.88;;;1.85;;
77948;SDS011;67146;51.236;-0.336;2023-09-19T08:40:40;15.48;;;3.55;;
77948;SDS011;67146;51.236;-0.336;2023-09-19T08:43:07;12.93;;;1.52;;
77948;SDS011;67146;51.236;-0.336;2023-09-19T08:45:33;8.02;;;1.42;;
77948;SDS011;67146;51.236;-0.336;2023-09-19T08:50:56;12.70;;;2.38;;
77948;SDS011;67146;51.236;-0.336;2023-09-19T08:53:45;13.82;;;2.05;;
77948;SDS011;67146;51.236;-0.336;2023-09-19T08:56:17;15.73;;;2.60;;
77948;SDS011;67146;51.236;-0.336;2023-09-19T08:58:45;10.52;;;2.20;;
77948;SDS011;67146;51.236;-0.336;2023-09-19T09:01:17;12.82;;;1.77;;
77948;SDS011;67146;51.236;-0.336;2023-09-19T09:03:49;11.77;;;1.85;;
77948;SDS011;67146;51.236;-0.336;2023-09-19T09:06:17;11.50;;;1.52;;
77948;SDS011;67146;51.236;-0.336;2023-09-19T09:08:43;11.23;;;1.73;;
77948;SDS011;67146;51.236;-0.336;2023-09-19T09:11:09;16.67;;;1.88;;
77948;SDS011;67146;51.236;-0.336;2023-09-19T09:13:36;17.20;;;2.03;;
77948;SDS011;67146;51.236;-0.336;2023-09-19T09:16:06;10.45;;;1.38;;
77948;SDS011;67146;51.236;-0.336;2023-09-19T09:18:33;11.20;;;1.40;;
77948;SDS011;67146;51.236;-0.336;2023-09-19T09:20:58;13.57;;;2.58;;
77948;SDS011;67146;51.236;-0.336;2023-09-19T09:23:24;13.55;;;1.92;;
77948;SDS011;67146;51.236;-0.336;2023-09-19T09:25:54;14.43;;;1.48;;
77948;SDS011;67146;51.236;-0.336;2023-09-19T09:28:22;10.85;;;2.67;;
77948;SDS011;67146;51.236;-0.336;2023-09-19T09:30:48;10.40;;;1.55;;
77948;SDS011;67146;51.236;-0.336;2023-09-19T09:33:15;12.35;;;1.80;;
77948;SDS011;67146;51.236;-0.336;2023-09-19T09:35:55;11.35;;;1.73;;
77948;SDS011;67146;51.236;-0.336;2023-09-19T09:38:26;13.15;;;2.13;;
77948;SDS011;67146;51.236;-0.336;2023-09-19T09:40:57;15.52;;;2.15;;
77948;SDS011;67146;51.236;-0.336;2023-09-19T09:43:40;11.43;;;2.22;;
77948;SDS011;67146;51.236;-0.336;2023-09-19T09:49:01;12.65;;;2.55;;
77948;SDS011;67146;51.236;-0.336;2023-09-19T09:51:50;13.00;;;1.88;;
77948;SDS011;67146;51.236;-0.336;2023-09-19T09:54:24;11.27;;;2.08;;
77948;SDS011;67146;51.236;-0.336;2023-09-19T09:56:59;13.02;;;2.05;;
77948;SDS011;67146;51.236;-0.336;2023-09-19T09:59:52;16.45;;;2.65;;
77948;SDS011;67146;51.236;-0.336;2023-09-19T10:02:19;20.33;;;3.47;;
77948;SDS011;67146;51.236;-0.336;2023-09-19T10:04:52;11.50;;;2.10;;
77948;SDS011;67146;51.236;-0.336;2023-09-19T10:09:58;11.70;;;2.35;;
77948;SDS011;67146;51.236;-0.336;2023-09-19T10:12:31;17.73;;;3.53;;
77948;SDS011;67146;51.236;-0.336;2023-09-19T10:15:07;14.27;;;2.97;;
77948;SDS011;67146;51.236;-0.336;2023-09-19T10:17:36;15.32;;;3.97;;
77948;SDS011;67146;51.236;-0.336;2023-09-19T10:20:01;15.23;;;2.63;;
77948;SDS011;67146;51.236;-0.336;2023-09-19T10:22:34;17.85;;;2.88;;
77948;SDS011;67146;51.236;-0.336;2023-09-19T10:25:00;13.88;;;2.65;;
77948;SDS011;67146;51.236;-0.336;2023-09-19T10:27:29;14.05;;;3.67;;
77948;SDS011;67146;51.236;-0.336;2023-09-19T10:29:56;11.60;;;1.77;;
77948;SDS011;67146;51.236;-0.336;2023-09-19T10:32:23;16.02;;;2.03;;
77948;SDS011;67146;51.236;-0.336;2023-09-19T10:34:50;15.13;;;2.22;;
77948;SDS011;67146;51.236;-0.336;2023-09-19T10:37:20;12.32;;;4.88;;
77948;SDS011;67146;51.236;-0.336;2023-09-19T10:39:47;14.27;;;2.28;;
77948;SDS011;67146;51.236;-0.336;2023-09-19T10:42:18;9.35;;;2.15;;
77948;SDS011;67146;51.236;-0.336;2023-09-19T10:44:45;14.00;;;2.28;;
77948;SDS011;67146;51.236;-0.336;2023-09-19T10:47:10;12.18;;;2.05;;
77948;SDS011;67146;51.236;-0.336;2023-09-19T10:49:45;9.80;;;1.95;;
77948;SDS011;67146;51.236;-0.336;2023-09-19T10:52:15;15.50;;;2.70;;
77948;SDS011;67146;51.236;-0.336;2023-09-19T10:54:48;9.85;;;2.65;;
77948;SDS011;67146;51.236;-0.336;2023-09-19T10:57:21;13.15;;;2.35;;
77948;SDS011;67146;51.236;-0.336;2023-09-19T11:00:05;13.48;;;2.78;;
77948;SDS011;67146;51.236;-0.336;2023-09-19T11:05:59;8.55;;;1.58;;
77948;SDS011;67146;51.236;-0.336;2023-09-19T11:08:28;10.85;;;1.85;;
77948;SDS011;67146;51.236;-0.336;2023-09-19T11:11:08;11.70;;;1.83;;
77948;SDS011;67146;51.236;-0.336;2023-09-19T11:28:28;9.45;;;1.67;;
77948;SDS011;67146;51.236;-0.336;2023-09-19T11:30:48;14.98;;;2.58;;
77948;SDS011;67146;51.236;-0.336;2023-09-19T11:33:25;11.30;;;2.90;;
77948;SDS011;67146;51.236;-0.336;2023-09-19T11:36:13;10.10;;;2.40;;
77948;SDS011;67146;51.236;-0.336;2023-09-19T11:43:49;11.70;;;2.65;;
77948;SDS011;67146;51.236;-0.336;2023-09-19T11:46:53;17.00;;;2.53;;
77948;SDS011;67146;51.236;-0.336;2023-09-19T11:49:25;10.65;;;1.77;;
77948;SDS011;67146;51.236;-0.336;2023-09-19T11:51:57;10.77;;;1.58;;
77948;SDS011;67146;51.236;-0.336;2023-09-19T11:54:26;13.75;;;1.65;;
77948;SDS011;67146;51.236;-0.336;2023-09-19T11:56:56;12.25;;;1.75;;
77948;SDS011;67146;51.236;-0.336;2023-09-19T11:59:22;13.40;;;2.03;;
77948;SDS011;67146;51.236;-0.336;2023-09-19T12:01:52;10.32;;;1.70;;
77948;SDS011;67146;51.236;-0.336;2023-09-19T12:07:05;7.15;;;1.30;;
77948;SDS011;67146;51.236;-0.336;2023-09-19T12:09:35;12.65;;;2.10;;
77948;SDS011;67146;51.236;-0.336;2023-09-19T12:12:03;16.05;;;2.30;;
77948;SDS011;67146;51.236;-0.336;2023-09-19T12:14:29;14.25;;;2.65;;
77948;SDS011;67146;51.236;-0.336;2023-09-19T12:16:56;15.23;;;2.50;;
77948;SDS011;67146;51.236;-0.336;2023-09-19T12:19:22;13.48;;;1.83;;
77948;SDS011;67146;51.236;-0.336;2023-09-19T12:21:58;8.10;;;1.65;;
77948;SDS011;67146;51.236;-0.336;2023-09-19T12:24:29;11.57;;;1.55;;
77948;SDS011;67146;51.236;-0.336;2023-09-19T12:26:59;12.07;;;2.38;;
77948;SDS011;67146;51.236;-0.336;2023-09-19T12:29:29;11.10;;;1.30;;
77948;SDS011;67146;51.236;-0.336;2023-09-19T12:31:58;10.50;;;2.30;;
77948;SDS011;67146;51.236;-0.336;2023-09-19T12:34:28;9.32;;;1.38;;
77948;SDS011;67146;51.236;-0.336;2023-09-19T12:39:41;10.85;;;2.13;;
77948;SDS011;67146;51.236;-0.336;2023-09-19T12:42:11;12.38;;;2.17;;
77948;SDS011;67146;51.236;-0.336;2023-09-19T12:44:40;8.88;;;1.27;;
77948;SDS011;67146;51.236;-0.336;2023-09-19T12:47:09;9.07;;;1.85;;
77948;SDS011;67146;51.236;-0.336;2023-09-19T12:49:36;9.82;;;1.52;;
77948;SDS011;67146;51.236;-0.336;2023-09-19T12:52:02;12.77;;;2.05;;
77948;SDS011;67146;51.236;-0.336;2023-09-19T12:54:40;10.40;;;1.65;;
77948;SDS011;67146;51.236;-0.336;2023-09-19T12:57:22;11.32;;;2.08;;
77948;SDS011;67146;51.236;-0.336;2023-09-19T12:59:51;6.88;;;1.60;;
77948;SDS011;67146;51.236;-0.336;2023-09-19T13:02:17;8.55;;;2.45;;
77948;SDS011;67146;51.236;-0.336;2023-09-19T13:04:52;12.00;;;2.13;;
77948;SDS011;67146;51.236;-0.336;2023-09-19T13:10:08;14.38;;;1.83;;
77948;SDS011;67146;51.236;-0.336;2023-09-19T13:12:35;5.65;;;0.95;;
77948;SDS011;67146;51.236;-0.336;2023-09-19T13:15:11;9.20;;;2.38;;
77948;SDS011;67146;51.236;-0.336;2023-09-19T13:17:48;6.90;;;1.25;;
77948;SDS011;67146;51.236;-0.336;2023-09-19T13:20:21;10.20;;;1.35;;
77948;SDS011;67146;51.236;-0.336;2023-09-19T13:22:52;7.75;;;1.63;;
77948;SDS011;67146;51.236;-0.336;2023-09-19T13:25:19;11.82;;;1.75;;
77948;SDS011;67146;51.236;-0.336;2023-09-19T13:27:51;9.15;;;1.98;;
77948;SDS011;67146;51.236;-0.336;2023-09-19T13:30:19;11.32;;;2.20;;
77948;SDS011;67146;51.236;-0.336;2023-09-19T13:32:50;7.10;;;1.52;;
77948;SDS011;67146;51.236;-0.336;2023-09-19T13:35:16;8.82;;;1.77;;
77948;SDS011;67146;51.236;-0.336;2023-09-19T13:37:42;6.13;;;1.05;;
77948;SDS011;67146;51.236;-0.336;2023-09-19T13:40:08;11.13;;;2.10;;
77948;SDS011;67146;51.236;-0.336;2023-09-19T13:42:34;8.25;;;1.33;;
77948;SDS011;67146;51.236;-0.336;2023-09-19T13:45:02;9.45;;;1.50;;
77948;SDS011;67146;51.236;-0.336;2023-09-19T13:47:28;10.70;;;1.40;;
77948;SDS011;67146;51.236;-0.336;2023-09-19T13:49:54;8.00;;;1.90;;
77948;SDS011;67146;51.236;-0.336;2023-09-19T13:52:20;10.57;;;1.25;;
77948;SDS011;67146;51.236;-0.336;2023-09-19T13:54:47;7.60;;;1.33;;
77948;SDS011;67146;51.236;-0.336;2023-09-19T13:57:13;7.63;;;0.68;;
77948;SDS011;67146;51.236;-0.336;2023-09-19T13:59:39;9.55;;;1.70;;
77948;SDS011;67146;51.236;-0.336;2023-09-19T14:02:04;7.53;;;0.93;;
77948;SDS011;67146;51.236;-0.336;2023-09-19T14:04:31;7.72;;;1.52;;
77948;SDS011;67146;51.236;-0.336;2023-09-19T14:07:01;6.72;;;1.25;;
77948;SDS011;67146;51.236;-0.336;2023-09-19T14:09:28;8.02;;;1.20;;
77948;SDS011;67146;51.236;-0.336;2023-09-19T14:11:54;9.95;;;1.90;;
77948;SDS011;67146;51.236;-0.336;2023-09-19T14:14:19;8.48;;;0.98;;
77948;SDS011;67146;51.236;-0.336;2023-09-19T14:16:45;9.68;;;1.92;;
77948;SDS011;67146;51.236;-0.336;2023-09-19T14:19:12;10.77;;;2.92;;
77948;SDS011;67146;51.236;-0.336;2023-09-19T14:21:38;11.60;;;2.50;;
77948;SDS011;67146;51.236;-0.336;2023-09-19T14:24:04;7.97;;;2.50;;
77948;SDS011;67146;51.236;-0.336;2023-09-19T14:26:34;9.70;;;1.73;;
77948;SDS011;67146;51.236;-0.336;2023-09-19T14:29:02;8.38;;;1.77;;
77948;SDS011;67146;51.236;-0.336;2023-09-19T14:31:28;7.57;;;1.50;;
77948;SDS011;67146;51.236;-0.336;2023-09-19T14:33:54;8.63;;;2.03;;
77948;SDS011;67146;51.236;-0.336;2023-09-19T14:36:22;8.60;;;1.33;;
77948;SDS011;67146;51.236;-0.336;2023-09-19T14:38:53;10.88;;;1.60;;
77948;SDS011;67146;51.236;-0.336;2023-09-19T14:41:22;7.85;;;1.58;;
77948;SDS011;67146;51.236;-0.336;2023-09-19T14:43:50;6.57;;;0.90;;
77948;SDS011;67146;51.236;-0.336;2023-09-19T14:46:18;9.68;;;1.20;;
77948;SDS011;67146;51.236;-0.336;2023-09-19T14:48:44;7.35;;;0.75;;
77948;SDS011;67146;51.236;-0.336;2023-09-19T14:51:14;6.45;;;1.35;;
77948;SDS011;67146;51.236;-0.336;2023-09-19T14:53:40;9.45;;;1.17;;
77948;SDS011;67146;51.236;-0.336;2023-09-19T14:56:12;11.50;;;1.90;;
77948;SDS011;67146;51.236;-0.336;2023-09-19T14:58:38;12.38;;;1.90;;
77948;SDS011;67146;51.236;-0.336;2023-09-19T15:03:33;7.75;;;1.20;;
77948;SDS011;67146;51.236;-0.336;2023-09-19T15:06:02;5.50;;;1.05;;
77948;SDS011;67146;51.236;-0.336;2023-09-19T15:08:30;9.02;;;1.35;;
77948;SDS011;67146;51.236;-0.336;2023-09-19T15:10:56;10.02;;;2.42;;
77948;SDS011;67146;51.236;-0.336;2023-09-19T15:13:28;7.70;;;2.10;;
77948;SDS011;67146;51.236;-0.336;2023-09-19T15:16:01;8.32;;;1.30;;
77948;SDS011;67146;51.236;-0.336;2023-09-19T15:18:27;8.07;;;1.20;;
77948;SDS011;67146;51.236;-0.336;2023-09-19T15:20:54;10.70;;;1.35;;
77948;SDS011;67146;51.236;-0.336;2023-09-19T15:23:20;12.82;;;1.55;;
77948;SDS011;67146;51.236;-0.336;2023-09-19T15:25:49;13.63;;;1.58;;
77948;SDS011;67146;51.236;-0.336;2023-09-19T15:28:17;7.88;;;1.08;;
77948;SDS011;67146;51.236;-0.336;2023-09-19T15:30:43;8.38;;;1.77;;
77948;SDS011;67146;51.236;-0.336;2023-09-19T15:33:09;7.35;;;1.17;;
77948;SDS011;67146;51.236;-0.336;2023-09-19T15:35:34;10.05;;;1.27;;
77948;SDS011;67146;51.236;-0.336;2023-09-19T15:38:02;11.00;;;2.03;;